createdAt,value
2022-08-28T00:00:41.626Z,15.03
2022-08-28T00:03:11.064Z,14.40
2022-08-28T00:05:39.558Z,14.77
2022-08-28T00:08:08.352Z,12.98
2022-08-28T00:10:35.351Z,14.02
2022-08-28T00:13:02.540Z,14.52
2022-08-28T00:15:32.954Z,13.82
2022-08-28T00:18:00.960Z,12.13
2022-08-28T00:20:29.454Z,11.52
2022-08-28T00:22:56.766Z,13.27
2022-08-28T00:25:25.669Z,13.15
2022-08-28T00:27:55.226Z,14.63
2022-08-28T00:30:27.186Z,14.38
2022-08-28T00:32:56.248Z,11.40
2022-08-28T00:35:23.778Z,10.48
2022-08-28T00:37:52.881Z,11.38
2022-08-28T00:40:30.634Z,11.55
2022-08-28T00:43:02.079Z,12.10
2022-08-28T00:45:29.761Z,10.75
2022-08-28T00:47:56.875Z,13.90
2022-08-28T00:50:27.798Z,12.55
2022-08-28T00:52:59.787Z,12.18
2022-08-28T00:55:28.159Z,13.32
2022-08-28T00:58:00.389Z,14.18
2022-08-28T01:00:29.332Z,12.70
2022-08-28T01:02:56.427Z,11.50
2022-08-28T01:05:23.860Z,13.95
2022-08-28T01:07:52.007Z,12.48
2022-08-28T01:10:23.155Z,12.43
2022-08-28T01:12:50.731Z,13.95
2022-08-28T01:15:20.094Z,13.27
2022-08-28T01:17:50.363Z,13.07
2022-08-28T01:20:22.056Z,13.45
2022-08-28T01:23:15.015Z,11.95
2022-08-28T01:25:42.615Z,12.60
2022-08-28T01:28:12.849Z,13.38
2022-08-28T01:30:42.531Z,12.77
2022-08-28T01:33:09.393Z,12.05
2022-08-28T01:35:43.381Z,10.38
2022-08-28T01:38:10.381Z,11.48
2022-08-28T01:40:40.311Z,10.57
2022-08-28T01:43:10.536Z,11.68
2022-08-28T01:45:37.686Z,12.02
2022-08-28T01:48:06.611Z,9.75
2022-08-28T01:50:34.390Z,11.77
2022-08-28T01:53:01.737Z,10.25
2022-08-28T01:55:28.848Z,11.02
2022-08-28T01:57:56.497Z,11.88
2022-08-28T02:00:27.515Z,12.23
2022-08-28T02:02:56.590Z,10.23
2022-08-28T02:05:25.517Z,10.30
2022-08-28T02:07:52.605Z,9.70
2022-08-28T02:10:24.254Z,9.98
2022-08-28T02:12:52.952Z,10.02
2022-08-28T02:15:20.001Z,12.98
2022-08-28T02:17:50.412Z,11.35
2022-08-28T02:20:17.723Z,10.52
2022-08-28T02:22:45.546Z,10.90
2022-08-28T02:25:12.640Z,10.70
2022-08-28T02:27:39.893Z,9.80
2022-08-28T02:30:09.891Z,9.25
2022-08-28T02:32:36.893Z,9.93
2022-08-28T02:35:05.560Z,10.68
2022-08-28T02:37:39.593Z,12.35
2022-08-28T02:40:07.196Z,11.82
2022-08-28T02:42:34.269Z,9.60
2022-08-28T02:45:01.462Z,10.75
2022-08-28T02:47:28.387Z,11.57
2022-08-28T02:49:55.227Z,10.63
2022-08-28T02:54:50.596Z,11.60
2022-08-28T02:57:17.593Z,10.27
2022-08-28T02:59:44.540Z,11.05
2022-08-28T03:02:11.379Z,10.38
2022-08-28T03:04:38.585Z,10.80
2022-08-28T03:07:07.443Z,10.63
2022-08-28T03:09:34.179Z,11.18
2022-08-28T03:14:27.977Z,11.95
2022-08-28T03:19:21.457Z,11.93
2022-08-28T03:21:48.200Z,14.57
2022-08-28T03:24:19.133Z,13.45
2022-08-28T03:29:13.147Z,13.53
2022-08-28T03:31:39.905Z,13.30
2022-08-28T03:36:33.928Z,13.00
2022-08-28T03:39:04.044Z,11.35
2022-08-28T03:41:31.829Z,10.55
2022-08-28T03:44:00.606Z,10.88
2022-08-28T03:46:29.488Z,13.50
2022-08-28T03:48:56.356Z,10.40
2022-08-28T03:51:29.222Z,9.65
2022-08-28T03:53:58.266Z,10.57
2022-08-28T03:56:26.635Z,11.75
2022-08-28T03:58:57.344Z,12.25
2022-08-28T04:01:24.993Z,11.73
2022-08-28T04:03:51.817Z,10.93
2022-08-28T04:06:19.659Z,11.40
2022-08-28T04:08:47.274Z,10.48
2022-08-28T04:11:14.112Z,10.77
2022-08-28T04:16:12.176Z,10.88
2022-08-28T04:18:41.839Z,11.02
2022-08-28T04:21:11.713Z,10.10
2022-08-28T04:23:40.100Z,11.13
2022-08-28T04:26:12.397Z,13.73
2022-08-28T04:28:39.609Z,10.07
2022-08-28T04:31:08.191Z,11.90
2022-08-28T04:33:35.769Z,10.48
2022-08-28T04:36:05.531Z,11.23
2022-08-28T04:38:32.434Z,11.98
2022-08-28T04:40:59.736Z,12.35
2022-08-28T04:43:26.505Z,11.80
2022-08-28T04:48:20.219Z,11.63
2022-08-28T04:55:54.629Z,11.98
2022-08-28T04:58:23.941Z,12.23
2022-08-28T05:00:53.028Z,10.43
2022-08-28T05:03:20.761Z,10.25
2022-08-28T05:05:50.277Z,11.68
2022-08-28T05:08:18.911Z,11.77
2022-08-28T05:10:46.945Z,11.90
2022-08-28T05:13:15.723Z,11.95
2022-08-28T05:15:44.674Z,12.45
2022-08-28T05:18:14.231Z,10.63
2022-08-28T05:20:44.687Z,13.40
2022-08-28T05:23:12.740Z,14.43
2022-08-28T05:25:43.168Z,14.15
2022-08-28T05:28:12.207Z,14.88
2022-08-28T05:30:40.756Z,15.07
2022-08-28T05:33:09.202Z,13.43
2022-08-28T05:35:38.750Z,13.13
2022-08-28T05:38:06.790Z,12.55
2022-08-28T05:40:34.451Z,14.10
2022-08-28T05:43:01.368Z,12.32
2022-08-28T05:47:54.967Z,12.63
2022-08-28T05:50:21.784Z,12.95
2022-08-28T05:55:15.510Z,14.75
2022-08-28T05:57:42.377Z,13.75
2022-08-28T06:00:13.346Z,13.98
2022-08-28T06:02:41.797Z,12.07
2022-08-28T06:05:09.670Z,11.93
2022-08-28T06:07:41.103Z,14.07
2022-08-28T06:10:10.479Z,11.82
2022-08-28T06:12:38.239Z,12.48
2022-08-28T06:15:05.966Z,13.02
2022-08-28T06:17:32.727Z,12.27
2022-08-28T06:19:59.556Z,10.52
2022-08-28T06:24:53.869Z,9.93
2022-08-28T06:27:20.659Z,10.82
2022-08-28T06:29:47.636Z,14.27
2022-08-28T06:32:14.563Z,11.40
2022-08-28T06:34:41.755Z,11.32
2022-08-28T06:37:09.807Z,10.57
2022-08-28T06:39:36.629Z,11.57
2022-08-28T06:42:03.698Z,9.43
2022-08-28T06:44:32.126Z,11.82
2022-08-28T06:47:00.302Z,16.20
2022-08-28T06:49:27.125Z,11.43
2022-08-28T06:51:54.134Z,11.55
2022-08-28T06:54:23.298Z,10.73
2022-08-28T06:56:51.762Z,10.13
2022-08-28T06:59:18.604Z,12.45
2022-08-28T07:01:45.497Z,12.80
2022-08-28T07:04:14.513Z,13.98
2022-08-28T07:06:46.718Z,13.93
2022-08-28T07:09:14.528Z,16.67
2022-08-28T07:11:45.420Z,18.08
2022-08-28T07:14:12.409Z,18.10
2022-08-28T07:16:39.791Z,15.27
2022-08-28T07:19:08.452Z,17.15
2022-08-28T07:21:39.494Z,17.60
2022-08-28T07:24:08.467Z,18.48
2022-08-28T07:26:35.859Z,17.67
2022-08-28T07:29:11.087Z,18.50
2022-08-28T07:31:44.297Z,16.95
2022-08-28T07:34:13.492Z,17.92
2022-08-28T07:36:41.128Z,14.30
2022-08-28T07:39:09.774Z,17.05
2022-08-28T07:41:39.335Z,14.85
2022-08-28T07:44:26.125Z,15.20
2022-08-28T07:46:54.837Z,16.42
2022-08-28T07:49:22.550Z,14.98
2022-08-28T07:51:49.484Z,16.67
2022-08-28T07:54:21.216Z,15.30
2022-08-28T07:56:47.954Z,15.07
2022-08-28T07:59:16.837Z,14.05
2022-08-28T08:01:46.517Z,15.07
2022-08-28T08:04:16.176Z,14.23
2022-08-28T08:06:44.327Z,15.13
2022-08-28T08:09:14.307Z,14.80
2022-08-28T08:11:42.378Z,13.57
2022-08-28T08:14:09.949Z,12.65
2022-08-28T08:16:39.548Z,11.75
2022-08-28T08:19:09.774Z,11.75
2022-08-28T08:21:37.442Z,11.48
2022-08-28T08:24:04.432Z,10.93
2022-08-28T08:26:31.185Z,10.95
2022-08-28T08:28:58.924Z,11.02
2022-08-28T08:31:29.440Z,12.57
2022-08-28T08:34:01.432Z,11.65
2022-08-28T08:36:30.216Z,12.55
2022-08-28T08:39:00.057Z,12.48
2022-08-28T08:41:48.660Z,12.18
2022-08-28T08:44:33.227Z,10.48
2022-08-28T08:47:07.858Z,11.30
2022-08-28T08:49:42.086Z,10.25
2022-08-28T08:52:12.020Z,11.35
2022-08-28T08:55:09.910Z,11.77
2022-08-28T08:57:38.958Z,11.98
2022-08-28T09:00:12.274Z,11.18
2022-08-28T09:02:58.632Z,12.07
2022-08-28T09:05:46.673Z,11.13
2022-08-28T09:08:33.921Z,11.98
2022-08-28T09:11:13.783Z,12.02
2022-08-28T09:14:20.641Z,12.55
2022-08-28T09:16:55.881Z,11.30
2022-08-28T09:19:22.884Z,12.15
2022-08-28T09:21:51.645Z,11.23
2022-08-28T09:24:26.621Z,11.90
2022-08-28T09:27:11.081Z,13.25
2022-08-28T09:29:47.042Z,12.00
2022-08-28T09:32:29.780Z,11.52
2022-08-28T09:35:24.475Z,11.63
2022-08-28T09:37:51.628Z,10.48
2022-08-28T09:40:51.151Z,11.65
2022-08-28T09:43:27.846Z,10.95
2022-08-28T09:46:03.000Z,10.48
2022-08-28T09:48:43.398Z,9.77
2022-08-28T09:51:22.517Z,10.35
2022-08-28T09:53:52.450Z,12.05
2022-08-28T09:56:34.258Z,9.82
2022-08-28T09:59:08.576Z,10.65
2022-08-28T10:01:45.176Z,9.98
2022-08-28T10:04:18.094Z,8.73
2022-08-28T10:07:26.799Z,9.68
2022-08-28T10:13:00.212Z,10.82
2022-08-28T10:15:43.267Z,9.05
2022-08-28T10:18:17.927Z,9.30
2022-08-28T10:21:13.008Z,8.63
2022-08-28T10:24:13.208Z,9.50
2022-08-28T10:26:55.244Z,7.72
2022-08-28T10:30:05.208Z,9.80
2022-08-28T10:32:45.546Z,7.53
2022-08-28T10:35:18.199Z,7.75
2022-08-28T10:38:16.893Z,7.60
2022-08-28T10:41:04.491Z,7.85
2022-08-28T10:43:37.493Z,6.88
2022-08-28T10:46:10.337Z,8.02
2022-08-28T10:48:46.488Z,7.63
2022-08-28T10:51:43.652Z,6.05
2022-08-28T10:57:24.767Z,6.72
2022-08-28T10:59:54.131Z,7.70
2022-08-28T11:02:25.101Z,7.78
2022-08-28T11:04:58.250Z,7.55
2022-08-28T11:07:49.487Z,7.72
2022-08-28T11:10:19.276Z,7.15
2022-08-28T11:12:48.158Z,7.45
2022-08-28T11:15:34.204Z,5.82
2022-08-28T11:18:15.886Z,6.05
2022-08-28T11:20:56.730Z,4.78
2022-08-28T11:23:41.931Z,5.30
2022-08-28T11:26:12.353Z,5.20
2022-08-28T11:28:47.241Z,4.50
2022-08-28T11:31:18.172Z,4.47
2022-08-28T11:33:58.822Z,4.90
2022-08-28T11:36:28.043Z,4.60
2022-08-28T11:38:54.874Z,4.93
2022-08-28T11:41:30.668Z,5.53
2022-08-28T11:44:09.419Z,4.35
2022-08-28T11:47:16.404Z,4.55
2022-08-28T11:49:44.620Z,4.40
2022-08-28T11:52:23.528Z,5.32
2022-08-28T11:55:22.254Z,4.47
2022-08-28T11:58:14.597Z,4.72
2022-08-28T12:01:19.546Z,4.13
2022-08-28T12:04:03.868Z,4.28
2022-08-28T12:06:52.738Z,4.70
2022-08-28T12:09:39.024Z,4.80
2022-08-28T12:12:10.799Z,4.38
2022-08-28T12:14:40.904Z,4.38
2022-08-28T12:17:20.181Z,5.35
2022-08-28T12:20:26.969Z,4.78
2022-08-28T12:22:56.811Z,4.30
2022-08-28T12:25:40.449Z,5.10
2022-08-28T12:28:29.476Z,5.32
2022-08-28T12:31:05.189Z,4.55
2022-08-28T12:33:48.397Z,5.38
2022-08-28T12:36:18.538Z,5.68
2022-08-28T12:38:53.686Z,4.78
2022-08-28T12:41:22.351Z,5.97
2022-08-28T12:43:53.437Z,4.97
2022-08-28T12:46:40.424Z,4.78
2022-08-28T12:49:30.219Z,5.28
2022-08-28T12:52:17.036Z,4.68
2022-08-28T12:54:46.264Z,5.03
2022-08-28T12:57:15.955Z,5.18
2022-08-28T12:59:45.644Z,5.28
2022-08-28T13:02:28.158Z,4.85
2022-08-28T13:04:55.607Z,5.65
2022-08-28T13:07:38.318Z,5.60
2022-08-28T13:10:20.899Z,5.32
2022-08-28T13:12:56.874Z,4.82
2022-08-28T13:15:55.167Z,6.30
2022-08-28T13:18:50.361Z,5.43
2022-08-28T13:21:32.721Z,5.90
2022-08-28T13:24:21.420Z,5.88
2022-08-28T13:26:59.165Z,5.55
2022-08-28T13:29:26.301Z,4.90
2022-08-28T13:32:00.813Z,4.07
2022-08-28T13:34:36.646Z,4.05
2022-08-28T13:37:18.522Z,5.20
2022-08-28T13:39:47.674Z,4.22
2022-08-28T13:42:16.874Z,4.05
2022-08-28T13:44:50.629Z,4.25
2022-08-28T13:47:17.693Z,4.60
2022-08-28T13:49:44.803Z,4.40
2022-08-28T13:52:12.192Z,4.20
2022-08-28T13:54:43.509Z,4.65
2022-08-28T13:57:11.030Z,4.60
2022-08-28T13:59:37.914Z,4.00
2022-08-28T14:02:25.342Z,4.30
2022-08-28T14:04:52.191Z,4.80
2022-08-28T14:07:19.050Z,4.63
2022-08-28T14:09:45.968Z,4.20
2022-08-28T14:12:12.903Z,4.68
2022-08-28T14:14:39.762Z,4.55
2022-08-28T14:17:08.601Z,4.45
2022-08-28T14:19:35.778Z,3.85
2022-08-28T14:22:02.722Z,4.22
2022-08-28T14:24:29.839Z,4.35
2022-08-28T14:26:57.114Z,4.30
2022-08-28T14:29:23.987Z,4.32
2022-08-28T14:31:51.025Z,3.97
2022-08-28T14:34:21.482Z,4.10
2022-08-28T14:36:55.012Z,4.32
2022-08-28T14:39:25.047Z,3.40
2022-08-28T14:41:53.246Z,3.15
2022-08-28T14:44:21.694Z,3.42
2022-08-28T14:46:58.122Z,3.20
2022-08-28T14:49:26.493Z,3.30
2022-08-28T14:51:54.931Z,2.90
2022-08-28T14:54:24.006Z,3.30
2022-08-28T14:56:52.468Z,3.10
2022-08-28T14:59:24.529Z,2.63
2022-08-28T15:01:53.096Z,3.10
2022-08-28T15:04:22.808Z,3.75
2022-08-28T15:06:51.169Z,2.88
2022-08-28T15:09:19.201Z,2.80
2022-08-28T15:11:46.310Z,2.78
2022-08-28T15:14:13.674Z,3.53
2022-08-28T15:16:43.552Z,3.17
2022-08-28T15:19:12.296Z,3.17
2022-08-28T15:21:44.481Z,2.80
2022-08-28T15:24:11.596Z,2.85
2022-08-28T15:26:40.046Z,2.75
2022-08-28T15:29:07.811Z,2.75
2022-08-28T15:31:37.736Z,2.40
2022-08-28T15:34:17.104Z,2.78
2022-08-28T15:36:45.841Z,2.80
2022-08-28T15:39:40.703Z,2.42
2022-08-28T15:42:09.000Z,2.60
2022-08-28T15:44:35.960Z,2.30
2022-08-28T15:47:04.952Z,2.30
2022-08-28T15:49:36.191Z,2.22
2022-08-28T15:52:11.530Z,2.55
2022-08-28T15:54:38.368Z,2.08
2022-08-28T15:57:05.370Z,2.05
2022-08-28T15:59:48.551Z,1.60
2022-08-28T16:02:16.287Z,1.50
2022-08-28T16:04:43.105Z,1.90
2022-08-28T16:07:09.913Z,1.50
2022-08-28T16:09:36.892Z,1.45
2022-08-28T16:12:04.039Z,1.63
2022-08-28T16:14:33.058Z,1.50
2022-08-28T16:17:05.994Z,1.35
2022-08-28T16:19:39.012Z,1.30
2022-08-28T16:22:06.456Z,2.47
2022-08-28T16:24:33.594Z,1.52
2022-08-28T16:27:00.489Z,1.38
2022-08-28T16:29:27.395Z,1.25
2022-08-28T16:31:54.290Z,1.25
2022-08-28T16:34:21.335Z,1.63
2022-08-28T16:36:48.420Z,1.23
2022-08-28T16:39:15.421Z,1.65
2022-08-28T16:41:46.188Z,1.73
2022-08-28T16:44:13.015Z,1.52
2022-08-28T16:46:39.906Z,1.30
2022-08-28T16:49:06.947Z,1.42
2022-08-28T16:51:33.871Z,1.38
2022-08-28T16:54:01.023Z,1.40
2022-08-28T16:56:27.794Z,1.27
2022-08-28T16:58:54.609Z,1.60
2022-08-28T17:01:24.090Z,1.42
2022-08-28T17:03:53.205Z,1.50
2022-08-28T17:06:24.052Z,1.30
2022-08-28T17:08:55.922Z,1.50
2022-08-28T17:11:27.140Z,1.60
2022-08-28T17:13:55.326Z,1.52
2022-08-28T17:16:23.610Z,1.45
2022-08-28T17:18:52.116Z,1.60
2022-08-28T17:21:39.547Z,1.63
2022-08-28T17:24:06.992Z,1.63
2022-08-28T17:26:33.923Z,1.58
2022-08-28T17:29:00.719Z,5.53
2022-08-28T17:31:27.916Z,2.67
2022-08-28T17:33:54.740Z,3.40
2022-08-28T17:36:33.512Z,11.95
2022-08-28T17:39:07.527Z,6.13
2022-08-28T17:41:35.339Z,2.55
2022-08-28T17:44:02.678Z,4.30
2022-08-28T17:46:31.861Z,2.50
2022-08-28T17:49:03.294Z,2.03
2022-08-28T17:51:43.026Z,2.20
2022-08-28T17:54:15.553Z,1.70
2022-08-28T17:56:42.501Z,2.05
2022-08-28T17:59:10.342Z,1.70
2022-08-28T18:01:38.344Z,1.60
2022-08-28T18:04:05.920Z,2.22
2022-08-28T18:06:33.016Z,1.90
2022-08-28T18:09:00.400Z,1.85
2022-08-28T18:11:28.133Z,1.60
2022-08-28T18:13:55.090Z,1.90
2022-08-28T18:16:22.003Z,2.42
2022-08-28T18:18:49.191Z,2.13
2022-08-28T18:21:16.016Z,2.63
2022-08-28T18:23:42.826Z,2.53
2022-08-28T18:26:09.832Z,2.97
2022-08-28T18:28:37.447Z,3.10
2022-08-28T18:31:06.359Z,3.15
2022-08-28T18:33:34.234Z,3.53
2022-08-28T18:36:01.934Z,3.60
2022-08-28T18:38:29.819Z,3.90
2022-08-28T18:40:59.585Z,4.47
2022-08-28T18:43:26.451Z,4.38
2022-08-28T18:45:53.589Z,4.25
2022-08-28T18:48:20.642Z,4.25
2022-08-28T18:50:48.282Z,4.32
2022-08-28T18:53:16.857Z,4.75
2022-08-28T18:55:43.813Z,4.10
2022-08-28T18:58:14.014Z,4.28
2022-08-28T19:00:42.227Z,4.30
2022-08-28T19:03:09.379Z,3.78
2022-08-28T19:05:37.952Z,4.57
2022-08-28T19:08:05.092Z,4.15
2022-08-28T19:10:34.293Z,4.00
2022-08-28T19:13:03.273Z,5.22
2022-08-28T19:15:31.118Z,4.70
2022-08-28T19:18:00.340Z,4.47
2022-08-28T19:20:28.701Z,4.30
2022-08-28T19:22:56.947Z,5.63
2022-08-28T19:25:28.632Z,4.55
2022-08-28T19:28:01.631Z,4.35
2022-08-28T19:30:33.185Z,5.30
2022-08-28T19:33:02.275Z,6.03
2022-08-28T19:35:29.267Z,4.97
2022-08-28T19:37:56.137Z,4.85
2022-08-28T19:40:23.553Z,5.82
2022-08-28T19:42:51.233Z,5.25
2022-08-28T19:45:18.310Z,5.38
2022-08-28T19:47:46.917Z,5.00
2022-08-28T19:50:14.844Z,5.53
2022-08-28T19:52:43.444Z,5.80
2022-08-28T19:55:19.305Z,5.15
2022-08-28T19:57:48.116Z,4.82
2022-08-28T20:00:18.150Z,4.65
2022-08-28T20:02:45.667Z,4.50
2022-08-28T20:05:12.642Z,5.50
2022-08-28T20:07:39.686Z,4.53
2022-08-28T20:10:07.336Z,4.78
2022-08-28T20:12:34.540Z,5.25
2022-08-28T20:15:03.656Z,5.88
2022-08-28T20:17:31.121Z,5.68
2022-08-28T20:20:02.860Z,5.90
2022-08-28T20:22:31.745Z,5.50
2022-08-28T20:24:59.878Z,7.85
2022-08-28T20:27:28.141Z,5.55
2022-08-28T20:29:54.870Z,6.75
2022-08-28T20:32:21.563Z,5.40
2022-08-28T20:34:48.446Z,5.15
2022-08-28T20:37:16.775Z,4.88
2022-08-28T20:39:43.574Z,5.47
2022-08-28T20:42:11.695Z,5.28
2022-08-28T20:44:38.410Z,5.57
2022-08-28T20:47:05.506Z,5.57
2022-08-28T20:49:32.314Z,5.15
2022-08-28T20:52:05.862Z,5.40
2022-08-28T20:54:36.889Z,6.05
2022-08-28T20:57:07.573Z,5.38
2022-08-28T20:59:39.873Z,5.97
2022-08-28T21:02:28.853Z,5.63
2022-08-28T21:04:55.949Z,5.18
2022-08-28T21:07:24.713Z,5.00
2022-08-28T21:10:06.696Z,5.15
2022-08-28T21:12:39.360Z,4.50
2022-08-28T21:15:09.313Z,4.85
2022-08-28T21:17:36.402Z,5.60
2022-08-28T21:20:12.050Z,5.32
2022-08-28T21:22:40.177Z,4.70
2022-08-28T21:25:09.009Z,6.10
2022-08-28T21:27:36.786Z,4.57
2022-08-28T21:30:05.564Z,5.75
2022-08-28T21:32:33.826Z,4.78
2022-08-28T21:35:02.169Z,4.90
2022-08-28T21:37:29.119Z,5.03
2022-08-28T21:39:56.646Z,4.80
2022-08-28T21:42:23.911Z,5.75
2022-08-28T21:44:51.978Z,5.40
2022-08-28T21:47:21.317Z,4.90
2022-08-28T21:49:50.035Z,4.78
2022-08-28T21:52:18.316Z,4.20
2022-08-28T21:54:45.157Z,5.05
2022-08-28T21:57:11.929Z,4.28
2022-08-28T21:59:38.956Z,4.13
2022-08-28T22:02:06.118Z,5.20
2022-08-28T22:04:33.033Z,5.20
2022-08-28T22:06:59.744Z,4.82
2022-08-28T22:11:53.363Z,4.22
2022-08-28T22:14:20.115Z,4.05
2022-08-28T22:19:13.713Z,4.47
2022-08-28T22:24:25.698Z,4.25
2022-08-28T22:29:25.127Z,5.13
2022-08-28T22:31:52.665Z,4.25
2022-08-28T22:34:19.822Z,5.93
2022-08-28T22:36:46.972Z,4.40
2022-08-28T22:39:13.797Z,4.22
2022-08-28T22:44:07.598Z,4.07
2022-08-28T22:46:35.192Z,3.90
2022-08-28T22:49:01.903Z,3.92
2022-08-28T22:53:55.995Z,5.05
2022-08-28T22:56:22.891Z,5.47
2022-08-28T22:58:49.622Z,5.60
2022-08-28T23:03:45.898Z,6.15
2022-08-28T23:06:13.653Z,5.32
2022-08-28T23:08:40.525Z,5.03
2022-08-28T23:11:07.859Z,5.20
2022-08-28T23:13:34.815Z,6.53
2022-08-28T23:16:02.512Z,5.45
2022-08-28T23:18:38.003Z,5.47
2022-08-28T23:21:13.301Z,5.03
2022-08-28T23:26:11.798Z,5.38
2022-08-28T23:28:39.040Z,4.75
2022-08-28T23:31:05.903Z,4.15
2022-08-28T23:33:32.675Z,4.80
2022-08-28T23:38:26.258Z,4.50
2022-08-28T23:43:19.753Z,4.55
2022-08-28T23:45:47.752Z,4.65
2022-08-28T23:48:15.255Z,5.18
2022-08-28T23:50:42.425Z,4.47
2022-08-28T23:53:10.596Z,5.47
2022-08-28T23:55:37.721Z,6.00
2022-08-28T23:58:05.349Z,4.85
